sensor_id;sensor_type;location;lat;lon;timestamp;pressure;altitude;pressure_sealevel;temperature;humidity
12475;BME280;6302;42.624;23.334;2024-01-15T00:02:09;92660.06;;;-0.72;100.00
12475;BME280;6302;42.624;23.334;2024-01-15T00:04:36;92654.47;;;-0.74;100.00
12475;BME280;6302;42.624;23.334;2024-01-15T00:07:05;92632.31;;;-0.83;100.00
12475;BME280;6302;42.624;23.334;2024-01-15T00:09:32;92648.59;;;-0.71;100.00
12475;BME280;6302;42.624;23.334;2024-01-15T00:11:59;92646.09;;;-0.67;100.00
12475;BME280;6302;42.624;23.334;2024-01-15T00:14:26;92653.63;;;-0.62;100.00
12475;BME280;6302;42.624;23.334;2024-01-15T00:16:52;92648.09;;;-0.60;100.00
12475;BME280;6302;42.624;23.334;2024-01-15T00:19:20;92642.13;;;-0.61;100.00
12475;BME280;6302;42.624;23.334;2024-01-15T00:21:47;92645.06;;;-0.62;100.00
12475;BME280;6302;42.624;23.334;2024-01-15T00:24:15;92648.84;;;-0.60;100.00
12475;BME280;6302;42.624;23.334;2024-01-15T00:26:42;92645.72;;;-0.66;100.00
12475;BME280;6302;42.624;23.334;2024-01-15T00:29:09;92643.81;;;-0.69;100.00
12475;BME280;6302;42.624;23.334;2024-01-15T00:31:36;92645.63;;;-0.69;100.00
12475;BME280;6302;42.624;23.334;2024-01-15T00:34:03;92652.97;;;-0.75;100.00
12475;BME280;6302;42.624;23.334;2024-01-15T00:36:29;92649.97;;;-0.77;100.00
12475;BME280;6302;42.624;23.334;2024-01-15T00:38:56;92649.59;;;-0.75;100.00
12475;BME280;6302;42.624;23.334;2024-01-15T00:41:24;92649.09;;;-0.81;100.00
12475;BME280;6302;42.624;23.334;2024-01-15T00:43:53;92652.13;;;-0.79;100.00
12475;BME280;6302;42.624;23.334;2024-01-15T00:46:20;92649.50;;;-0.79;100.00
12475;BME280;6302;42.624;23.334;2024-01-15T00:48:47;92622.75;;;-0.95;100.00
12475;BME280;6302;42.624;23.334;2024-01-15T00:51:13;92629.91;;;-0.92;100.00
12475;BME280;6302;42.624;23.334;2024-01-15T00:53:40;92649.09;;;-0.81;100.00
12475;BME280;6302;42.624;23.334;2024-01-15T00:56:07;92645.41;;;-0.80;100.00
12475;BME280;6302;42.624;23.334;2024-01-15T00:58:35;92651.03;;;-0.78;100.00
12475;BME280;6302;42.624;23.334;2024-01-15T01:01:02;92636.09;;;-0.81;100.00
12475;BME280;6302;42.624;23.334;2024-01-15T01:03:29;92638.69;;;-0.81;100.00
12475;BME280;6302;42.624;23.334;2024-01-15T01:05:55;92632.72;;;-0.81;100.00
12475;BME280;6302;42.624;23.334;2024-01-15T01:08:22;92640.97;;;-0.79;100.00
12475;BME280;6302;42.624;23.334;2024-01-15T01:10:49;92645.31;;;-0.83;100.00
12475;BME280;6302;42.624;23.334;2024-01-15T01:13:16;92636.75;;;-0.84;100.00
12475;BME280;6302;42.624;23.334;2024-01-15T01:15:44;92641.47;;;-0.89;100.00
12475;BME280;6302;42.624;23.334;2024-01-15T01:18:10;92644.16;;;-0.86;100.00
12475;BME280;6302;42.624;23.334;2024-01-15T01:20:37;92647.50;;;-0.85;100.00
12475;BME280;6302;42.624;23.334;2024-01-15T01:23:04;92637.00;;;-0.89;100.00
12475;BME280;6302;42.624;23.334;2024-01-15T01:25:33;92624.00;;;-0.89;100.00
12475;BME280;6302;42.624;23.334;2024-01-15T01:28:00;92623.69;;;-0.87;100.00
12475;BME280;6302;42.624;23.334;2024-01-15T01:30:27;92627.72;;;-0.90;100.00
12475;BME280;6302;42.624;23.334;2024-01-15T01:32:55;92612.38;;;-0.95;100.00
12475;BME280;6302;42.624;23.334;2024-01-15T01:35:22;92627.38;;;-0.88;100.00
12475;BME280;6302;42.624;23.334;2024-01-15T01:37:49;92620.56;;;-0.93;100.00
12475;BME280;6302;42.624;23.334;2024-01-15T01:40:16;92622.16;;;-0.88;100.00
12475;BME280;6302;42.624;23.334;2024-01-15T01:42:43;92618.38;;;-0.91;100.00
12475;BME280;6302;42.624;23.334;2024-01-15T01:45:11;92614.72;;;-0.90;100.00
12475;BME280;6302;42.624;23.334;2024-01-15T01:47:38;92609.19;;;-1.04;100.00
12475;BME280;6302;42.624;23.334;2024-01-15T01:50:07;92615.06;;;-1.07;100.00
12475;BME280;6302;42.624;23.334;2024-01-15T01:52:34;92620.56;;;-1.08;100.00
12475;BME280;6302;42.624;23.334;2024-01-15T01:55:03;92607.91;;;-1.10;100.00
12475;BME280;6302;42.624;23.334;2024-01-15T01:57:31;92610.09;;;-1.12;100.00
12475;BME280;6302;42.624;23.334;2024-01-15T01:59:59;92603.06;;;-1.11;100.00
12475;BME280;6302;42.624;23.334;2024-01-15T02:02:26;92599.69;;;-1.12;100.00
12475;BME280;6302;42.624;23.334;2024-01-15T02:04:53;92594.91;;;-1.10;100.00
12475;BME280;6302;42.624;23.334;2024-01-15T02:07:21;92608.25;;;-1.11;100.00
12475;BME280;6302;42.624;23.334;2024-01-15T02:09:49;92598.44;;;-1.18;100.00
12475;BME280;6302;42.624;23.334;2024-01-15T02:12:16;92603.72;;;-1.14;100.00
12475;BME280;6302;42.624;23.334;2024-01-15T02:14:43;92575.72;;;-1.37;100.00
12475;BME280;6302;42.624;23.334;2024-01-15T02:17:10;92577.97;;;-1.35;100.00
12475;BME280;6302;42.624;23.334;2024-01-15T02:19:37;92585.09;;;-1.32;100.00
12475;BME280;6302;42.624;23.334;2024-01-15T02:22:05;92569.09;;;-1.34;100.00
12475;BME280;6302;42.624;23.334;2024-01-15T02:24:33;92563.72;;;-1.41;100.00
12475;BME280;6302;42.624;23.334;2024-01-15T02:27:00;92557.00;;;-1.42;100.00
12475;BME280;6302;42.624;23.334;2024-01-15T02:29:26;92550.28;;;-1.43;100.00
12475;BME280;6302;42.624;23.334;2024-01-15T02:31:53;92529.50;;;-1.43;100.00
12475;BME280;6302;42.624;23.334;2024-01-15T02:34:20;92531.94;;;-1.50;100.00
12475;BME280;6302;42.624;23.334;2024-01-15T02:36:47;92539.06;;;-1.47;100.00
12475;BME280;6302;42.624;23.334;2024-01-15T02:39:13;92535.81;;;-1.44;100.00
12475;BME280;6302;42.624;23.334;2024-01-15T02:41:41;92531.38;;;-1.44;100.00
12475;BME280;6302;42.624;23.334;2024-01-15T02:44:08;92533.22;;;-1.44;100.00
12475;BME280;6302;42.624;23.334;2024-01-15T02:46:35;92521.72;;;-1.43;100.00
12475;BME280;6302;42.624;23.334;2024-01-15T02:49:02;92525.16;;;-1.39;100.00
12475;BME280;6302;42.624;23.334;2024-01-15T02:51:29;92532.28;;;-1.36;100.00
12475;BME280;6302;42.624;23.334;2024-01-15T02:53:55;92530.63;;;-1.28;100.00
12475;BME280;6302;42.624;23.334;2024-01-15T02:56:22;92518.19;;;-1.35;100.00
12475;BME280;6302;42.624;23.334;2024-01-15T02:58:49;92522.22;;;-1.22;100.00
12475;BME280;6302;42.624;23.334;2024-01-15T03:01:18;92514.59;;;-1.31;100.00
12475;BME280;6302;42.624;23.334;2024-01-15T03:03:45;92530.09;;;-1.18;100.00
12475;BME280;6302;42.624;23.334;2024-01-15T03:06:12;92523.91;;;-1.14;100.00
12475;BME280;6302;42.624;23.334;2024-01-15T03:08:39;92531.75;;;-1.10;100.00
12475;BME280;6302;42.624;23.334;2024-01-15T03:11:05;92523.63;;;-1.09;100.00
12475;BME280;6302;42.624;23.334;2024-01-15T03:13:35;92536.69;;;-1.05;100.00
12475;BME280;6302;42.624;23.334;2024-01-15T03:16:04;92531.19;;;-1.04;100.00
12475;BME280;6302;42.624;23.334;2024-01-15T03:18:31;92538.28;;;-1.01;100.00
12475;BME280;6302;42.624;23.334;2024-01-15T03:20:58;92528.59;;;-1.04;100.00
12475;BME280;6302;42.624;23.334;2024-01-15T03:23:26;92520.78;;;-1.04;100.00
12475;BME280;6302;42.624;23.334;2024-01-15T03:25:53;92520.09;;;-1.01;100.00
12475;BME280;6302;42.624;23.334;2024-01-15T03:28:20;92512.44;;;-0.94;100.00
12475;BME280;6302;42.624;23.334;2024-01-15T03:30:47;92510.69;;;-0.90;100.00
12475;BME280;6302;42.624;23.334;2024-01-15T03:33:15;92498.50;;;-0.86;100.00
12475;BME280;6302;42.624;23.334;2024-01-15T03:35:41;92494.47;;;-0.83;100.00
12475;BME280;6302;42.624;23.334;2024-01-15T03:38:08;92503.06;;;-0.63;100.00
12475;BME280;6302;42.624;23.334;2024-01-15T03:40:35;92495.31;;;-0.79;100.00
12475;BME280;6302;42.624;23.334;2024-01-15T03:43:02;92485.84;;;-0.87;100.00
12475;BME280;6302;42.624;23.334;2024-01-15T03:45:31;92493.44;;;-0.79;100.00
12475;BME280;6302;42.624;23.334;2024-01-15T03:47:58;92489.22;;;-0.87;100.00
12475;BME280;6302;42.624;23.334;2024-01-15T03:50:26;92505.63;;;-0.83;100.00
12475;BME280;6302;42.624;23.334;2024-01-15T03:52:53;92512.00;;;-0.80;100.00
12475;BME280;6302;42.624;23.334;2024-01-15T03:55:19;92515.00;;;-0.78;100.00
12475;BME280;6302;42.624;23.334;2024-01-15T03:57:46;92501.25;;;-0.79;100.00
12475;BME280;6302;42.624;23.334;2024-01-15T04:00:14;92516.84;;;-0.79;100.00
12475;BME280;6302;42.624;23.334;2024-01-15T04:02:42;92507.22;;;-0.78;100.00
12475;BME280;6302;42.624;23.334;2024-01-15T04:05:09;92500.16;;;-0.78;100.00
12475;BME280;6302;42.624;23.334;2024-01-15T04:07:38;92500.56;;;-0.76;100.00
12475;BME280;6302;42.624;23.334;2024-01-15T04:10:05;92491.28;;;-0.77;100.00
12475;BME280;6302;42.624;23.334;2024-01-15T04:12:32;92489.41;;;-0.76;100.00
12475;BME280;6302;42.624;23.334;2024-01-15T04:14:59;92484.22;;;-0.76;100.00
12475;BME280;6302;42.624;23.334;2024-01-15T04:17:27;92478.84;;;-0.83;100.00
12475;BME280;6302;42.624;23.334;2024-01-15T04:19:53;92483.03;;;-0.79;100.00
12475;BME280;6302;42.624;23.334;2024-01-15T04:22:20;92472.22;;;-0.81;100.00
12475;BME280;6302;42.624;23.334;2024-01-15T04:24:49;92474.81;;;-0.81;100.00
12475;BME280;6302;42.624;23.334;2024-01-15T04:27:15;92479.22;;;-0.85;100.00
12475;BME280;6302;42.624;23.334;2024-01-15T04:29:42;92487.44;;;-0.83;100.00
12475;BME280;6302;42.624;23.334;2024-01-15T04:32:10;92486.25;;;-0.85;100.00
12475;BME280;6302;42.624;23.334;2024-01-15T04:34:37;92495.91;;;-0.86;100.00
12475;BME280;6302;42.624;23.334;2024-01-15T04:37:03;92498.09;;;-0.88;100.00
12475;BME280;6302;42.624;23.334;2024-01-15T04:39:30;92492.88;;;-0.88;100.00
12475;BME280;6302;42.624;23.334;2024-01-15T04:41:58;92491.72;;;-0.90;100.00
12475;BME280;6302;42.624;23.334;2024-01-15T04:44:25;92486.16;;;-0.89;100.00
12475;BME280;6302;42.624;23.334;2024-01-15T04:46:52;92484.00;;;-0.87;100.00
12475;BME280;6302;42.624;23.334;2024-01-15T04:49:19;92482.13;;;-0.86;100.00
12475;BME280;6302;42.624;23.334;2024-01-15T04:51:44;92481.72;;;-0.88;100.00
12475;BME280;6302;42.624;23.334;2024-01-15T04:54:11;92483.91;;;-0.90;100.00
12475;BME280;6302;42.624;23.334;2024-01-15T04:56:38;92479.38;;;-0.93;100.00
12475;BME280;6302;42.624;23.334;2024-01-15T04:59:06;92472.00;;;-0.91;100.00
12475;BME280;6302;42.624;23.334;2024-01-15T05:01:33;92470.25;;;-0.87;100.00
12475;BME280;6302;42.624;23.334;2024-01-15T05:04:00;92463.88;;;-0.90;100.00
12475;BME280;6302;42.624;23.334;2024-01-15T05:06:27;92456.47;;;-0.88;100.00
12475;BME280;6302;42.624;23.334;2024-01-15T05:08:53;92445.94;;;-0.95;100.00
12475;BME280;6302;42.624;23.334;2024-01-15T05:11:20;92443.06;;;-0.90;100.00
12475;BME280;6302;42.624;23.334;2024-01-15T05:13:47;92438.34;;;-0.84;100.00
12475;BME280;6302;42.624;23.334;2024-01-15T05:16:15;92415.22;;;-0.89;100.00
12475;BME280;6302;42.624;23.334;2024-01-15T05:18:42;92433.41;;;-0.89;100.00
12475;BME280;6302;42.624;23.334;2024-01-15T05:21:09;92445.94;;;-0.95;100.00
12475;BME280;6302;42.624;23.334;2024-01-15T05:23:36;92442.94;;;-0.97;100.00
12475;BME280;6302;42.624;23.334;2024-01-15T05:26:03;92439.03;;;-0.87;100.00
12475;BME280;6302;42.624;23.334;2024-01-15T05:28:30;92447.59;;;-0.87;100.00
12475;BME280;6302;42.624;23.334;2024-01-15T05:30:56;92451.28;;;-0.88;100.00
12475;BME280;6302;42.624;23.334;2024-01-15T05:33:25;92431.41;;;-0.96;100.00
12475;BME280;6302;42.624;23.334;2024-01-15T05:35:51;92437.88;;;-0.90;100.00
12475;BME280;6302;42.624;23.334;2024-01-15T05:38:19;92412.56;;;-1.08;100.00
12475;BME280;6302;42.624;23.334;2024-01-15T05:40:46;92461.00;;;-0.85;100.00
12475;BME280;6302;42.624;23.334;2024-01-15T05:43:12;92448.41;;;-0.83;100.00
12475;BME280;6302;42.624;23.334;2024-01-15T05:45:43;92438.00;;;-0.83;100.00
12475;BME280;6302;42.624;23.334;2024-01-15T05:48:10;92435.13;;;-0.78;100.00
12475;BME280;6302;42.624;23.334;2024-01-15T05:50:38;92430.75;;;-0.74;100.00
12475;BME280;6302;42.624;23.334;2024-01-15T05:53:05;92415.97;;;-0.70;100.00
12475;BME280;6302;42.624;23.334;2024-01-15T05:55:36;92431.31;;;-0.64;100.00
12475;BME280;6302;42.624;23.334;2024-01-15T05:58:04;92417.19;;;-0.63;100.00
12475;BME280;6302;42.624;23.334;2024-01-15T06:00:31;92436.25;;;-0.59;100.00
12475;BME280;6302;42.624;23.334;2024-01-15T06:03:00;92429.53;;;-0.60;100.00
12475;BME280;6302;42.624;23.334;2024-01-15T06:05:27;92434.72;;;-0.60;100.00
12475;BME280;6302;42.624;23.334;2024-01-15T06:07:55;92434.47;;;-0.55;100.00
12475;BME280;6302;42.624;23.334;2024-01-15T06:10:22;92440.06;;;-0.53;100.00
12475;BME280;6302;42.624;23.334;2024-01-15T06:12:49;92446.44;;;-0.51;100.00
12475;BME280;6302;42.624;23.334;2024-01-15T06:15:15;92427.88;;;-0.49;100.00
12475;BME280;6302;42.624;23.334;2024-01-15T06:17:42;92422.34;;;-0.48;100.00
12475;BME280;6302;42.624;23.334;2024-01-15T06:20:10;92427.59;;;-0.44;100.00
12475;BME280;6302;42.624;23.334;2024-01-15T06:22:38;92435.38;;;-0.44;100.00
12475;BME280;6302;42.624;23.334;2024-01-15T06:25:07;92436.22;;;-0.40;100.00
12475;BME280;6302;42.624;23.334;2024-01-15T06:27:34;92428.41;;;-0.40;100.00
12475;BME280;6302;42.624;23.334;2024-01-15T06:30:01;92423.34;;;-0.33;100.00
12475;BME280;6302;42.624;23.334;2024-01-15T06:32:28;92415.25;;;-0.28;100.00
12475;BME280;6302;42.624;23.334;2024-01-15T06:34:55;92422.78;;;-0.23;100.00
12475;BME280;6302;42.624;23.334;2024-01-15T06:37:22;92414.69;;;-0.18;100.00
12475;BME280;6302;42.624;23.334;2024-01-15T06:39:49;92420.38;;;-0.13;100.00
12475;BME280;6302;42.624;23.334;2024-01-15T06:42:17;92426.19;;;0.00;100.00
12475;BME280;6302;42.624;23.334;2024-01-15T06:44:44;92432.22;;;0.08;100.00
12475;BME280;6302;42.624;23.334;2024-01-15T06:47:11;92435.38;;;0.17;100.00
12475;BME280;6302;42.624;23.334;2024-01-15T06:49:37;92439.91;;;0.20;100.00
12475;BME280;6302;42.624;23.334;2024-01-15T06:52:05;92449.09;;;0.14;100.00
12475;BME280;6302;42.624;23.334;2024-01-15T06:54:32;92438.31;;;0.15;100.00
12475;BME280;6302;42.624;23.334;2024-01-15T06:56:58;92425.06;;;0.24;100.00
12475;BME280;6302;42.624;23.334;2024-01-15T06:59:26;92438.56;;;0.29;100.00
12475;BME280;6302;42.624;23.334;2024-01-15T07:01:56;92449.28;;;0.24;100.00
12475;BME280;6302;42.624;23.334;2024-01-15T07:04:22;92444.84;;;0.28;100.00
12475;BME280;6302;42.624;23.334;2024-01-15T07:06:49;92434.78;;;0.27;100.00
12475;BME280;6302;42.624;23.334;2024-01-15T07:09:16;92449.84;;;0.14;100.00
12475;BME280;6302;42.624;23.334;2024-01-15T07:11:44;92458.47;;;0.18;100.00
12475;BME280;6302;42.624;23.334;2024-01-15T07:14:12;92454.88;;;0.26;100.00
12475;BME280;6302;42.624;23.334;2024-01-15T07:16:40;92457.41;;;0.23;100.00
12475;BME280;6302;42.624;23.334;2024-01-15T07:19:07;92460.13;;;0.30;100.00
12475;BME280;6302;42.624;23.334;2024-01-15T07:21:34;92441.59;;;0.35;100.00
12475;BME280;6302;42.624;23.334;2024-01-15T07:24:01;92436.88;;;0.40;100.00
12475;BME280;6302;42.624;23.334;2024-01-15T07:26:27;92437.78;;;0.51;100.00
12475;BME280;6302;42.624;23.334;2024-01-15T07:28:54;92436.28;;;0.50;100.00
12475;BME280;6302;42.624;23.334;2024-01-15T07:31:21;92439.63;;;0.51;100.00
12475;BME280;6302;42.624;23.334;2024-01-15T07:33:49;92426.25;;;0.52;100.00
12475;BME280;6302;42.624;23.334;2024-01-15T07:36:16;92431.34;;;0.45;100.00
12475;BME280;6302;42.624;23.334;2024-01-15T07:38:42;92433.66;;;0.50;100.00
12475;BME280;6302;42.624;23.334;2024-01-15T07:41:09;92418.53;;;0.59;100.00
12475;BME280;6302;42.624;23.334;2024-01-15T07:43:38;92429.81;;;0.67;100.00
12475;BME280;6302;42.624;23.334;2024-01-15T07:46:06;92438.19;;;0.80;100.00
12475;BME280;6302;42.624;23.334;2024-01-15T07:48:33;92437.19;;;0.88;100.00
12475;BME280;6302;42.624;23.334;2024-01-15T07:51:01;92455.19;;;0.70;100.00
12475;BME280;6302;42.624;23.334;2024-01-15T07:53:29;92448.34;;;0.62;100.00
12475;BME280;6302;42.624;23.334;2024-01-15T07:55:56;92444.19;;;0.57;100.00
12475;BME280;6302;42.624;23.334;2024-01-15T07:58:23;92444.44;;;0.72;100.00
12475;BME280;6302;42.624;23.334;2024-01-15T08:00:49;92437.13;;;0.84;100.00
12475;BME280;6302;42.624;23.334;2024-01-15T08:03:17;92426.81;;;0.91;100.00
12475;BME280;6302;42.624;23.334;2024-01-15T08:05:44;92424.53;;;0.86;100.00
12475;BME280;6302;42.624;23.334;2024-01-15T08:08:12;92405.91;;;0.88;100.00
12475;BME280;6302;42.624;23.334;2024-01-15T08:10:38;92411.28;;;0.98;100.00
12475;BME280;6302;42.624;23.334;2024-01-15T08:13:05;92417.09;;;1.18;100.00
12475;BME280;6302;42.624;23.334;2024-01-15T08:15:33;92429.41;;;1.17;100.00
12475;BME280;6302;42.624;23.334;2024-01-15T08:18:00;92431.41;;;1.27;100.00
12475;BME280;6302;42.624;23.334;2024-01-15T08:20:27;92428.81;;;1.31;100.00
12475;BME280;6302;42.624;23.334;2024-01-15T08:22:54;92440.19;;;1.16;100.00
12475;BME280;6302;42.624;23.334;2024-01-15T08:25:22;92450.94;;;1.11;100.00
12475;BME280;6302;42.624;23.334;2024-01-15T08:27:49;92452.03;;;1.10;100.00
12475;BME280;6302;42.624;23.334;2024-01-15T08:30:16;92438.16;;;1.02;100.00
12475;BME280;6302;42.624;23.334;2024-01-15T08:32:44;92425.94;;;1.10;100.00
12475;BME280;6302;42.624;23.334;2024-01-15T08:35:12;92433.91;;;1.20;100.00
12475;BME280;6302;42.624;23.334;2024-01-15T08:37:39;92432.22;;;1.35;100.00
12475;BME280;6302;42.624;23.334;2024-01-15T08:40:06;92422.81;;;1.27;100.00
12475;BME280;6302;42.624;23.334;2024-01-15T08:42:37;92403.25;;;1.14;100.00
12475;BME280;6302;42.624;23.334;2024-01-15T08:45:04;92428.19;;;1.41;100.00
12475;BME280;6302;42.624;23.334;2024-01-15T08:47:31;92399.84;;;1.40;100.00
12475;BME280;6302;42.624;23.334;2024-01-15T08:49:58;92403.28;;;1.47;100.00
12475;BME280;6302;42.624;23.334;2024-01-15T08:52:25;92410.81;;;1.56;100.00
12475;BME280;6302;42.624;23.334;2024-01-15T08:54:52;92412.28;;;1.50;100.00
12475;BME280;6302;42.624;23.334;2024-01-15T08:57:18;92421.63;;;1.54;100.00
12475;BME280;6302;42.624;23.334;2024-01-15T08:59:47;92411.66;;;1.63;100.00
12475;BME280;6302;42.624;23.334;2024-01-15T09:02:14;92411.19;;;1.54;100.00
12475;BME280;6302;42.624;23.334;2024-01-15T09:04:41;92403.72;;;1.53;100.00
12475;BME280;6302;42.624;23.334;2024-01-15T09:07:08;92393.69;;;1.58;100.00
12475;BME280;6302;42.624;23.334;2024-01-15T09:09:34;92387.84;;;1.68;100.00
12475;BME280;6302;42.624;23.334;2024-01-15T09:12:02;92373.75;;;1.76;100.00
12475;BME280;6302;42.624;23.334;2024-01-15T09:14:28;92368.19;;;1.81;100.00
12475;BME280;6302;42.624;23.334;2024-01-15T09:16:56;92322.63;;;1.75;100.00
12475;BME280;6302;42.624;23.334;2024-01-15T09:19:23;92324.34;;;2.01;100.00
12475;BME280;6302;42.624;23.334;2024-01-15T09:21:50;92342.00;;;2.15;100.00
12475;BME280;6302;42.624;23.334;2024-01-15T09:24:17;92331.22;;;2.23;100.00
12475;BME280;6302;42.624;23.334;2024-01-15T09:26:43;92326.03;;;2.30;100.00
12475;BME280;6302;42.624;23.334;2024-01-15T09:29:10;92317.91;;;2.39;100.00
12475;BME280;6302;42.624;23.334;2024-01-15T09:31:37;92334.34;;;2.43;100.00
12475;BME280;6302;42.624;23.334;2024-01-15T09:34:05;92337.34;;;2.45;96.14
12475;BME280;6302;42.624;23.334;2024-01-15T09:36:32;92329.13;;;2.43;95.71
12475;BME280;6302;42.624;23.334;2024-01-15T09:38:58;92333.94;;;2.37;97.69
12475;BME280;6302;42.624;23.334;2024-01-15T09:41:26;92329.03;;;2.29;98.18
12475;BME280;6302;42.624;23.334;2024-01-15T09:43:53;92322.25;;;2.21;99.21
12475;BME280;6302;42.624;23.334;2024-01-15T09:46:20;92305.38;;;2.11;99.73
12475;BME280;6302;42.624;23.334;2024-01-15T09:48:47;92303.47;;;2.05;99.64
12475;BME280;6302;42.624;23.334;2024-01-15T09:51:16;92292.06;;;1.79;100.00
12475;BME280;6302;42.624;23.334;2024-01-15T09:53:43;92286.75;;;1.69;100.00
12475;BME280;6302;42.624;23.334;2024-01-15T09:56:10;92274.50;;;1.76;100.00
12475;BME280;6302;42.624;23.334;2024-01-15T09:58:38;92272.66;;;1.80;100.00
12475;BME280;6302;42.624;23.334;2024-01-15T10:01:07;92273.09;;;1.86;98.46
12475;BME280;6302;42.624;23.334;2024-01-15T10:03:36;92282.41;;;1.83;99.93
12475;BME280;6302;42.624;23.334;2024-01-15T10:06:04;92282.50;;;1.97;98.91
12475;BME280;6302;42.624;23.334;2024-01-15T10:08:35;92282.97;;;2.10;98.31
12475;BME280;6302;42.624;23.334;2024-01-15T10:11:03;92278.16;;;2.16;98.15
12475;BME280;6302;42.624;23.334;2024-01-15T10:13:30;92283.91;;;2.39;97.84
12475;BME280;6302;42.624;23.334;2024-01-15T10:15:57;92262.31;;;2.49;93.03
12475;BME280;6302;42.624;23.334;2024-01-15T10:18:25;92270.34;;;2.23;97.92
12475;BME280;6302;42.624;23.334;2024-01-15T10:20:52;92253.63;;;2.31;99.06
12475;BME280;6302;42.624;23.334;2024-01-15T10:23:19;92249.91;;;2.35;100.00
12475;BME280;6302;42.624;23.334;2024-01-15T10:25:47;92224.53;;;2.39;99.64
12475;BME280;6302;42.624;23.334;2024-01-15T10:28:14;92233.56;;;2.56;99.45
12475;BME280;6302;42.624;23.334;2024-01-15T10:30:41;92236.59;;;2.61;99.41
12475;BME280;6302;42.624;23.334;2024-01-15T10:33:08;92230.66;;;2.75;98.67
12475;BME280;6302;42.624;23.334;2024-01-15T10:35:34;92223.25;;;2.91;98.31
12475;BME280;6302;42.624;23.334;2024-01-15T10:38:01;92210.19;;;2.91;96.31
12475;BME280;6302;42.624;23.334;2024-01-15T10:40:29;92217.31;;;3.05;95.90
12475;BME280;6302;42.624;23.334;2024-01-15T10:42:59;92216.16;;;2.99;95.38
12475;BME280;6302;42.624;23.334;2024-01-15T10:45:26;92234.41;;;2.78;96.47
12475;BME280;6302;42.624;23.334;2024-01-15T10:47:53;92222.88;;;2.96;96.14
12475;BME280;6302;42.624;23.334;2024-01-15T10:50:24;92223.28;;;3.05;95.40
12475;BME280;6302;42.624;23.334;2024-01-15T10:52:51;92204.97;;;2.98;95.42
12475;BME280;6302;42.624;23.334;2024-01-15T10:55:19;92214.34;;;3.13;95.80
12475;BME280;6302;42.624;23.334;2024-01-15T10:57:48;92207.97;;;3.07;94.75
12475;BME280;6302;42.624;23.334;2024-01-15T11:00:17;92209.84;;;3.10;94.65
12475;BME280;6302;42.624;23.334;2024-01-15T11:02:44;92210.59;;;3.14;94.88
12475;BME280;6302;42.624;23.334;2024-01-15T11:05:11;92202.00;;;3.21;95.71
12475;BME280;6302;42.624;23.334;2024-01-15T11:07:39;92195.69;;;3.40;94.18
12475;BME280;6302;42.624;23.334;2024-01-15T11:10:07;92179.94;;;3.36;93.75
12475;BME280;6302;42.624;23.334;2024-01-15T11:12:35;92193.06;;;3.40;93.42
12475;BME280;6302;42.624;23.334;2024-01-15T11:15:03;92189.31;;;3.62;92.61
12475;BME280;6302;42.624;23.334;2024-01-15T11:17:59;92191.19;;;3.89;88.75
12475;BME280;6302;42.624;23.334;2024-01-15T11:20:26;92181.84;;;3.71;88.66
12475;BME280;6302;42.624;23.334;2024-01-15T11:22:53;92191.94;;;3.97;88.48
12475;BME280;6302;42.624;23.334;2024-01-15T11:25:22;92188.16;;;4.05;87.79
12475;BME280;6302;42.624;23.334;2024-01-15T11:27:51;92190.03;;;4.19;85.84
12475;BME280;6302;42.624;23.334;2024-01-15T11:30:18;92185.91;;;4.14;86.89
12475;BME280;6302;42.624;23.334;2024-01-15T11:32:45;92191.13;;;4.25;86.13
12475;BME280;6302;42.624;23.334;2024-01-15T11:35:14;92178.69;;;4.50;84.20
12475;BME280;6302;42.624;23.334;2024-01-15T11:37:57;92186.50;;;4.68;82.94
12475;BME280;6302;42.624;23.334;2024-01-15T11:40:37;92174.50;;;4.74;82.66
12475;BME280;6302;42.624;23.334;2024-01-15T11:43:05;92165.50;;;4.71;82.90
12475;BME280;6302;42.624;23.334;2024-01-15T11:45:32;92177.78;;;4.85;83.16
12475;BME280;6302;42.624;23.334;2024-01-15T11:48:17;92175.91;;;4.89;83.54
12475;BME280;6302;42.624;23.334;2024-01-15T11:50:46;92171.31;;;5.07;82.51
12475;BME280;6302;42.624;23.334;2024-01-15T11:53:24;92181.72;;;5.28;81.28
12475;BME280;6302;42.624;23.334;2024-01-15T11:55:57;92163.69;;;5.30;80.77
12475;BME280;6302;42.624;23.334;2024-01-15T11:58:24;92156.53;;;5.31;80.94
12475;BME280;6302;42.624;23.334;2024-01-15T12:00:52;92163.28;;;5.32;80.03
12475;BME280;6302;42.624;23.334;2024-01-15T12:03:20;92163.34;;;5.21;81.79
12475;BME280;6302;42.624;23.334;2024-01-15T12:05:49;92156.16;;;5.32;80.71
12475;BME280;6302;42.624;23.334;2024-01-15T12:08:21;92147.94;;;5.26;81.75
12475;BME280;6302;42.624;23.334;2024-01-15T12:10:47;92134.44;;;5.28;81.43
12475;BME280;6302;42.624;23.334;2024-01-15T12:13:14;92129.94;;;5.21;81.06
12475;BME280;6302;42.624;23.334;2024-01-15T12:15:43;92130.34;;;5.20;81.43
12475;BME280;6302;42.624;23.334;2024-01-15T12:18:12;92129.25;;;5.14;81.56
12475;BME280;6302;42.624;23.334;2024-01-15T12:20:40;92129.34;;;5.00;83.24
12475;BME280;6302;42.624;23.334;2024-01-15T12:23:09;92135.00;;;4.95;83.16
12475;BME280;6302;42.624;23.334;2024-01-15T12:25:36;92129.34;;;5.03;82.10
12475;BME280;6302;42.624;23.334;2024-01-15T12:28:04;92139.19;;;4.85;83.87
12475;BME280;6302;42.624;23.334;2024-01-15T12:30:33;92125.03;;;4.69;84.93
12475;BME280;6302;42.624;23.334;2024-01-15T12:33:02;92133.22;;;4.81;84.67
12475;BME280;6302;42.624;23.334;2024-01-15T12:35:30;92130.19;;;4.83;84.22
12475;BME280;6302;42.624;23.334;2024-01-15T12:37:57;92119.00;;;4.72;85.39
12475;BME280;6302;42.624;23.334;2024-01-15T12:40:27;92115.25;;;4.73;87.26
12475;BME280;6302;42.624;23.334;2024-01-15T12:42:54;92127.91;;;4.88;88.33
12475;BME280;6302;42.624;23.334;2024-01-15T12:45:21;92122.69;;;4.85;87.17
12475;BME280;6302;42.624;23.334;2024-01-15T12:47:48;92106.97;;;4.78;86.62
12475;BME280;6302;42.624;23.334;2024-01-15T12:50:16;92108.34;;;4.96;86.43
12475;BME280;6302;42.624;23.334;2024-01-15T12:52:43;92090.06;;;4.86;86.03
12475;BME280;6302;42.624;23.334;2024-01-15T12:55:10;92111.78;;;4.93;87.50
12475;BME280;6302;42.624;23.334;2024-01-15T12:57:39;92101.59;;;4.99;88.50
12475;BME280;6302;42.624;23.334;2024-01-15T13:00:06;92093.28;;;5.11;89.41